Time;durP1;ratioP1;P1;durP2;ratioP2;P2;SDS_P1;SDS_P2;PMS_P1;PMS_P2;Temp;Humidity;BMP_temperature;BMP_pressure;BME280_temperature;BME280_humidity;BME280_pressure;Samples;Min_cycle;Max_cycle;Signal;HPM_P1;HPM_P2
2023/10/19 00:00:44;;;;;;;4.80;3.65;;;15.20;64.90;;;;;;5015376;28;20037;-65
2023/10/19 00:03:11;;;;;;;4.85;4.22;;;15.20;64.90;;;;;;5021877;28;20109;-65
2023/10/19 00:05:37;;;;;;;4.72;3.50;;;15.30;65.00;;;;;;5003927;28;20101;-65
2023/10/19 00:10:42;;;;;;;4.07;3.67;;;15.20;64.80;;;;;;5008675;28;20030;-65
2023/10/19 00:13:09;;;;;;;3.70;3.30;;;15.20;64.80;;;;;;5005751;28;20500;-65
2023/10/19 00:15:39;;;;;;;3.65;3.28;;;15.20;64.80;;;;;;5010246;28;20500;-65
2023/10/19 00:20:59;;;;;;;4.07;3.30;;;15.20;64.80;;;;;;4988974;28;20496;-65
2023/10/19 00:23:34;;;;;;;3.63;3.30;;;15.20;64.70;;;;;;5000235;28;20496;-65
2023/10/19 00:26:08;;;;;;;5.30;3.50;;;15.20;64.80;;;;;;5008184;28;20030;-65
2023/10/19 00:28:35;;;;;;;4.40;3.33;;;15.20;64.80;;;;;;5008490;28;20034;-65
2023/10/19 00:31:04;;;;;;;5.47;3.63;;;15.20;64.80;;;;;;5004687;28;20029;-64
2023/10/19 00:33:32;;;;;;;4.68;3.50;;;15.20;64.60;;;;;;5002130;28;20048;-65
2023/10/19 00:36:08;;;;;;;3.75;3.45;;;15.20;64.60;;;;;;5004311;28;20030;-66
2023/10/19 00:41:22;;;;;;;4.35;3.20;;;15.20;64.80;;;;;;4988456;28;20034;-65
2023/10/19 00:43:49;;;;;;;4.95;3.75;;;15.30;64.90;;;;;;5015153;28;20099;-65
2023/10/19 00:48:54;;;;;;;4.53;3.40;;;15.30;65.00;;;;;;4985992;28;20093;-67
2023/10/19 00:54:16;;;;;;;3.80;3.22;;;15.30;65.00;;;;;;5008346;28;20025;-65
2023/10/19 00:56:51;;;;;;;4.72;3.50;;;15.20;64.90;;;;;;4987181;28;20050;-65
2023/10/19 00:59:23;;;;;;;3.97;3.42;;;15.30;65.00;;;;;;4999937;28;20077;-65
2023/10/19 01:01:54;;;;;;;5.65;3.05;;;15.30;65.00;;;;;;5007014;28;20038;-65
2023/10/19 01:04:23;;;;;;;4.47;3.63;;;15.30;65.00;;;;;;5010220;28;20046;-65
2023/10/19 01:09:36;;;;;;;4.43;3.60;;;15.30;65.00;;;;;;5007559;28;20143;-65
2023/10/19 01:15:17;;;;;;;3.63;3.03;;;15.30;64.90;;;;;;4998008;28;20061;-65
2023/10/19 01:17:52;;;;;;;3.58;3.28;;;15.30;65.00;;;;;;5003775;28;20026;-65
2023/10/19 01:20:23;;;;;;;;;;;15.30;65.10;;;;;;4977338;28;20042;-64
2023/10/19 01:28:48;;;;;;;4.22;3.38;;;15.30;65.00;;;;;;4984016;28;20582;-65
2023/10/19 01:34:00;;;;;;;3.90;3.50;;;15.30;65.10;;;;;;5007137;28;20145;-64
2023/10/19 01:36:27;;;;;;;3.95;2.85;;;15.30;65.00;;;;;;5004446;28;20125;-65
2023/10/19 01:38:54;;;;;;;4.72;3.35;;;15.30;64.90;;;;;;5004983;28;20443;-65
2023/10/19 01:41:21;;;;;;;3.60;3.10;;;15.30;64.90;;;;;;5011011;28;20136;-65
2023/10/19 01:43:48;;;;;;;3.80;3.40;;;15.30;65.00;;;;;;5013590;28;20325;-65
2023/10/19 01:49:11;;;;;;;3.58;3.03;;;15.30;65.10;;;;;;4993163;28;20538;-65
2023/10/19 01:51:40;;;;;;;4.90;3.33;;;15.30;65.10;;;;;;5011878;28;20030;-65
2023/10/19 01:54:09;;;;;;;3.22;2.83;;;15.30;65.10;;;;;;5007299;28;20382;-65
2023/10/19 01:56:35;;;;;;;3.90;3.50;;;15.30;65.00;;;;;;5004872;28;20325;-65
2023/10/19 01:59:03;;;;;;;3.42;3.13;;;15.30;64.90;;;;;;5006557;28;20030;-65
2023/10/19 02:01:31;;;;;;;3.47;3.17;;;15.30;65.00;;;;;;5003229;28;20038;-65
2023/10/19 02:07:31;;;;;;;3.70;3.30;;;15.30;65.20;;;;;;4991143;28;20088;-65
2023/10/19 02:09:56;;;;;;;4.65;3.50;;;15.30;65.10;;;;;;5009439;28;20125;-65
2023/10/19 02:12:22;;;;;;;4.18;2.88;;;15.30;65.10;;;;;;5006081;28;20061;-65
2023/10/19 02:14:48;;;;;;;4.03;3.22;;;15.30;65.10;;;;;;5008644;28;20036;-65
2023/10/19 02:17:14;;;;;;;3.25;2.90;;;15.30;65.20;;;;;;5012866;28;20033;-65
2023/10/19 02:19:40;;;;;;;3.13;2.83;;;15.30;65.10;;;;;;5011210;28;20053;-65
2023/10/19 02:22:11;;;;;;;4.20;3.10;;;15.30;65.20;;;;;;5006807;28;20119;-65
2023/10/19 02:24:38;;;;;;;3.88;3.22;;;15.30;65.00;;;;;;5002730;28;20042;-65
2023/10/19 02:27:04;;;;;;;3.58;3.20;;;15.30;65.20;;;;;;5021162;28;20146;-66
2023/10/19 02:29:30;;;;;;;3.45;2.90;;;15.30;65.10;;;;;;5004658;28;20026;-66
2023/10/19 02:31:57;;;;;;;3.22;2.75;;;15.30;65.20;;;;;;5023507;28;20052;-64
2023/10/19 02:34:23;;;;;;;3.72;3.00;;;15.30;65.20;;;;;;5005483;28;20057;-63
2023/10/19 02:36:49;;;;;;;3.05;2.75;;;15.30;65.00;;;;;;5008096;28;20026;-65
2023/10/19 02:39:17;;;;;;;3.00;2.80;;;15.30;65.20;;;;;;5005426;28;20034;-62
2023/10/19 02:41:44;;;;;;;3.75;2.95;;;15.30;65.20;;;;;;4982961;28;20255;-64
2023/10/19 02:46:44;;;;;;;2.92;2.63;;;15.30;65.10;;;;;;5007400;28;20037;-64
2023/10/19 02:49:13;;;;;;;3.13;2.83;;;15.30;65.30;;;;;;5003288;28;20030;-64
2023/10/19 02:51:39;;;;;;;3.40;2.75;;;15.30;65.10;;;;;;4998877;28;20511;-64
2023/10/19 02:54:07;;;;;;;3.53;3.17;;;15.30;65.20;;;;;;5003016;28;20022;-64
2023/10/19 02:56:35;;;;;;;3.15;2.85;;;15.30;65.30;;;;;;5004667;28;20231;-64
2023/10/19 02:59:03;;;;;;;3.17;2.88;;;15.30;65.10;;;;;;5002641;28;20472;-64
2023/10/19 03:01:34;;;;;;;3.22;2.75;;;15.30;65.30;;;;;;5006655;28;20034;-63
2023/10/19 03:04:01;;;;;;;3.53;2.72;;;15.30;65.20;;;;;;5009582;28;20515;-64
2023/10/19 03:06:34;;;;;;;3.88;2.88;;;15.30;65.20;;;;;;5007487;28;20492;-64
2023/10/19 03:09:22;;;;;;;3.28;2.97;;;15.30;65.30;;;;;;5006648;28;20357;-64
2023/10/19 03:11:52;;;;;;;2.88;2.65;;;15.30;65.40;;;;;;5011151;28;20026;-64
2023/10/19 03:14:18;;;;;;;3.33;3.00;;;15.30;65.20;;;;;;5011561;28;20041;-64
2023/10/19 03:16:45;;;;;;;2.97;2.78;;;15.30;65.20;;;;;;5008444;28;20373;-64
2023/10/19 03:19:11;;;;;;;3.47;2.90;;;15.30;65.20;;;;;;5007232;28;20038;-64
2023/10/19 03:21:43;;;;;;;3.38;2.67;;;15.30;65.30;;;;;;5005918;28;20033;-64
2023/10/19 03:24:15;;;;;;;3.20;2.80;;;15.30;65.10;;;;;;5004264;28;20034;-64
2023/10/19 03:26:48;;;;;;;3.03;2.58;;;15.30;65.20;;;;;;5010962;28;20022;-64
2023/10/19 03:29:15;;;;;;;3.30;2.95;;;15.30;65.40;;;;;;4999937;28;20401;-64
2023/10/19 03:31:43;;;;;;;4.05;3.15;;;15.40;65.30;;;;;;5006041;28;20058;-64
2023/10/19 03:34:12;;;;;;;3.78;3.45;;;15.30;65.30;;;;;;5007624;28;20022;-64
2023/10/19 03:36:38;;;;;;;4.68;2.67;;;15.30;65.10;;;;;;5006912;28;20076;-64
2023/10/19 03:39:13;;;;;;;3.00;2.70;;;15.30;65.30;;;;;;5008873;28;20021;-64
2023/10/19 03:41:42;;;;;;;4.35;3.45;;;15.30;65.30;;;;;;5011655;28;20044;-63
2023/10/19 03:44:13;;;;;;;2.95;2.40;;;15.30;65.20;;;;;;5007151;28;20034;-64
2023/10/19 03:46:52;;;;;;;3.47;2.75;;;15.30;65.30;;;;;;5004729;28;20030;-63
2023/10/19 03:49:21;;;;;;;2.90;2.60;;;15.30;65.30;;;;;;5003835;28;20034;-63
2023/10/19 03:52:19;;;;;;;3.75;2.92;;;15.30;65.30;;;;;;5006208;28;20088;-63
2023/10/19 03:54:47;;;;;;;2.70;2.50;;;15.30;65.30;;;;;;4982365;28;20113;-64
2023/10/19 03:57:29;;;;;;;3.58;2.58;;;15.30;65.30;;;;;;4986197;28;20088;-64
2023/10/19 03:59:58;;;;;;;3.88;2.88;;;15.30;65.20;;;;;;4997131;28;20030;-64
2023/10/19 04:02:25;;;;;;;4.57;2.67;;;15.30;65.30;;;;;;5006411;28;20058;-64
2023/10/19 04:04:52;;;;;;;2.85;2.55;;;15.40;65.30;;;;;;5006799;28;20061;-64
2023/10/19 04:07:20;;;;;;;2.72;2.53;;;15.40;65.40;;;;;;5002969;28;20030;-63
2023/10/19 04:12:42;;;;;;;3.05;2.40;;;15.30;65.20;;;;;;4980525;28;20084;-64
2023/10/19 04:15:18;;;;;;;3.03;2.35;;;15.40;65.30;;;;;;4999889;28;20400;-64
2023/10/19 04:17:45;;;;;;;2.67;2.33;;;15.40;65.40;;;;;;5002926;28;20037;-64
2023/10/19 04:22:44;;;;;;;2.67;2.47;;;15.40;65.40;;;;;;4982306;28;20364;-64
2023/10/19 04:25:12;;;;;;;2.88;2.67;;;15.40;65.40;;;;;;4985908;28;20033;-64
2023/10/19 04:27:38;;;;;;;2.90;2.60;;;15.40;65.40;;;;;;4983582;28;20136;-64
2023/10/19 04:30:04;;;;;;;3.45;2.33;;;15.40;65.30;;;;;;4988018;28;20037;-65
2023/10/19 04:32:31;;;;;;;3.40;2.58;;;15.40;65.40;;;;;;4990151;28;20034;-64
2023/10/19 04:34:58;;;;;;;3.58;2.42;;;15.40;65.40;;;;;;5002374;28;20115;-64
2023/10/19 04:37:24;;;;;;;3.08;2.72;;;15.40;65.60;;;;;;5004229;28;20034;-64
2023/10/19 04:39:50;;;;;;;3.60;2.75;;;15.40;65.40;;;;;;5005663;28;20203;-64
2023/10/19 04:42:15;;;;;;;2.95;2.40;;;15.40;65.30;;;;;;5021028;28;20021;-64
2023/10/19 04:44:41;;;;;;;3.35;2.50;;;15.40;65.40;;;;;;5003622;28;20080;-64
2023/10/19 04:47:07;;;;;;;3.38;2.60;;;15.40;65.30;;;;;;4984424;28;20481;-64
2023/10/19 04:49:32;;;;;;;2.65;2.33;;;15.40;65.40;;;;;;4983284;28;20224;-64
2023/10/19 04:51:58;;;;;;;3.80;2.20;;;15.40;65.40;;;;;;5008409;28;20026;-64
2023/10/19 04:54:23;;;;;;;3.15;2.20;;;15.40;65.50;;;;;;5002863;28;20404;-64
2023/10/19 04:56:52;;;;;;;2.60;2.40;;;15.40;66.00;;;;;;5005610;28;20022;-64
2023/10/19 04:59:17;;;;;;;2.80;2.40;;;15.40;65.40;;;;;;5007746;28;20033;-62
2023/10/19 05:01:43;;;;;;;3.10;2.40;;;15.40;65.40;;;;;;5004138;28;20045;-63
2023/10/19 05:04:09;;;;;;;3.22;2.80;;;15.40;65.40;;;;;;5002836;28;20408;-63
2023/10/19 05:06:34;;;;;;;3.08;2.75;;;15.40;65.50;;;;;;5004878;28;20101;-65
2023/10/19 05:09:02;;;;;;;2.78;2.42;;;15.40;65.50;;;;;;5008544;28;20485;-64
2023/10/19 05:11:28;;;;;;;3.15;2.10;;;15.40;65.50;;;;;;5003922;28;20034;-64
2023/10/19 05:13:54;;;;;;;2.80;2.60;;;15.40;65.40;;;;;;5004955;28;20400;-64
2023/10/19 05:16:19;;;;;;;2.80;2.50;;;15.40;65.50;;;;;;5002425;28;20088;-64
2023/10/19 05:18:45;;;;;;;2.85;2.05;;;15.40;65.40;;;;;;5000536;28;20022;-64
2023/10/19 05:21:12;;;;;;;2.70;2.50;;;15.40;65.40;;;;;;5017411;28;20397;-64
2023/10/19 05:23:38;;;;;;;3.53;2.55;;;15.40;65.60;;;;;;4989385;28;20031;-65
2023/10/19 05:26:06;;;;;;;3.58;2.88;;;15.40;65.60;;;;;;5007564;28;20067;-65
2023/10/19 05:28:32;;;;;;;3.30;2.28;;;15.40;65.60;;;;;;5005082;28;20132;-65
2023/10/19 05:30:59;;;;;;;2.45;2.25;;;15.40;65.60;;;;;;5008994;28;20153;-65
2023/10/19 05:33:25;;;;;;;3.92;2.25;;;15.40;65.70;;;;;;5006789;28;20125;-66
2023/10/19 05:35:51;;;;;;;3.50;2.13;;;15.40;65.70;;;;;;5005019;28;20030;-65
2023/10/19 05:38:19;;;;;;;2.90;2.35;;;15.40;65.70;;;;;;5009584;28;20091;-65
2023/10/19 05:40:45;;;;;;;3.50;2.40;;;15.40;65.60;;;;;;5007914;28;20444;-64
2023/10/19 05:43:11;;;;;;;3.33;2.70;;;15.40;65.60;;;;;;5008873;28;20033;-64
2023/10/19 05:45:37;;;;;;;2.80;2.28;;;15.40;65.80;;;;;;5007148;28;20026;-66
2023/10/19 05:48:09;;;;;;;3.90;2.55;;;15.40;65.60;;;;;;5004515;28;20041;-65
2023/10/19 05:50:35;;;;;;;3.72;2.45;;;15.40;65.70;;;;;;5010367;28;20030;-64
2023/10/19 05:53:02;;;;;;;2.88;2.42;;;15.40;65.50;;;;;;5009927;28;20504;-64
2023/10/19 05:55:28;;;;;;;5.50;2.55;;;15.40;65.60;;;;;;5008976;28;20061;-64
2023/10/19 05:57:54;;;;;;;3.30;2.70;;;15.40;65.60;;;;;;5009809;28;20053;-65
2023/10/19 06:00:20;;;;;;;3.17;2.63;;;15.50;65.50;;;;;;5009462;28;20457;-64
2023/10/19 06:02:48;;;;;;;3.60;2.67;;;15.50;65.60;;;;;;5004590;28;20092;-64
2023/10/19 06:05:17;;;;;;;3.10;2.80;;;15.50;65.40;;;;;;5010410;28;20040;-64
2023/10/19 06:07:48;;;;;;;2.85;2.50;;;15.50;65.60;;;;;;5011375;28;20037;-64
2023/10/19 06:10:17;;;;;;;3.65;2.72;;;15.50;65.60;;;;;;4993167;28;20065;-64
2023/10/19 06:12:46;;;;;;;3.58;2.83;;;15.50;65.50;;;;;;4988044;28;20137;-64
2023/10/19 06:15:13;;;;;;;3.78;2.83;;;15.50;65.50;;;;;;4985049;28;20038;-65
2023/10/19 06:17:40;;;;;;;3.25;2.55;;;15.50;65.60;;;;;;4984295;28;20053;-64
2023/10/19 06:20:08;;;;;;;3.65;3.10;;;15.50;65.60;;;;;;4982482;28;20610;-64
2023/10/19 06:22:37;;;;;;;2.70;2.50;;;15.50;65.60;;;;;;4985306;28;20092;-64
2023/10/19 06:25:06;;;;;;;5.15;3.10;;;15.50;65.80;;;;;;4986236;28;20038;-64
2023/10/19 06:27:32;;;;;;;3.15;2.85;;;15.50;66.00;;;;;;5008145;28;20050;-64
2023/10/19 06:29:57;;;;;;;3.97;2.78;;;15.40;65.80;;;;;;5005806;28;20057;-64
2023/10/19 06:32:23;;;;;;;5.45;3.75;;;15.50;65.90;;;;;;5004440;28;20092;-64
2023/10/19 06:34:50;;;;;;;4.90;3.10;;;15.40;66.20;;;;;;5005311;28;20042;-63
2023/10/19 06:37:15;;;;;;;3.95;3.33;;;15.40;66.10;;;;;;5009138;28;20026;-66
2023/10/19 06:39:41;;;;;;;4.55;3.67;;;15.40;66.20;;;;;;5009260;28;20045;-64
2023/10/19 06:42:13;;;;;;;4.65;3.30;;;15.40;66.20;;;;;;5012627;28;20769;-64
2023/10/19 06:44:40;;;;;;;6.95;3.42;;;15.40;66.40;;;;;;5006005;28;20038;-64
2023/10/19 06:47:06;;;;;;;5.47;3.90;;;15.40;66.30;;;;;;5002829;28;20420;-64
2023/10/19 06:49:32;;;;;;;3.20;2.90;;;15.40;66.30;;;;;;5010743;28;20125;-64
2023/10/19 06:51:58;;;;;;;5.13;3.22;;;15.40;66.40;;;;;;5007040;28;20034;-64
2023/10/19 06:54:24;;;;;;;4.45;3.30;;;15.40;66.50;;;;;;5004299;28;20034;-65
2023/10/19 06:56:49;;;;;;;4.93;4.07;;;15.40;66.40;;;;;;5004093;28;20476;-64
2023/10/19 06:59:15;;;;;;;4.85;3.80;;;15.40;66.40;;;;;;5004356;28;20026;-64
2023/10/19 07:01:40;;;;;;;5.15;3.47;;;15.40;66.60;;;;;;5009759;28;20070;-64
2023/10/19 07:04:06;;;;;;;5.47;4.07;;;15.40;66.40;;;;;;5006504;28;20140;-64
2023/10/19 07:06:32;;;;;;;5.32;3.65;;;15.40;66.70;;;;;;5014800;28;20034;-64
2023/10/19 07:08:58;;;;;;;5.40;4.47;;;15.40;66.80;;;;;;5010803;28;20049;-64
2023/10/19 07:11:24;;;;;;;5.10;4.05;;;15.40;66.70;;;;;;5003684;28;20034;-64
2023/10/19 07:13:49;;;;;;;6.18;4.45;;;15.40;66.90;;;;;;5003305;28;20818;-64
2023/10/19 07:16:16;;;;;;;6.07;4.25;;;15.40;66.90;;;;;;5007526;28;20033;-64
2023/10/19 07:18:41;;;;;;;7.68;5.32;;;15.40;67.00;;;;;;5005934;28;20041;-64
2023/10/19 07:21:09;;;;;;;6.03;4.43;;;15.40;66.90;;;;;;5006663;28;20042;-65
2023/10/19 07:23:37;;;;;;;7.50;4.85;;;15.40;67.00;;;;;;5005930;28;20031;-64
2023/10/19 07:26:04;;;;;;;6.88;4.03;;;15.40;67.10;;;;;;5006771;28;20030;-65
2023/10/19 07:28:31;;;;;;;5.97;4.43;;;15.40;66.90;;;;;;5009908;28;20084;-65
2023/10/19 07:30:57;;;;;;;9.02;4.63;;;15.40;66.90;;;;;;5003622;28;20030;-64
2023/10/19 07:33:23;;;;;;;6.57;4.45;;;15.40;66.90;;;;;;5009029;28;20034;-65
2023/10/19 07:35:59;;;;;;;7.65;4.25;;;15.40;67.10;;;;;;5005823;28;20427;-64
2023/10/19 07:38:28;;;;;;;5.30;4.10;;;15.40;66.80;;;;;;4989067;28;20036;-64
2023/10/19 07:40:53;;;;;;;7.88;4.47;;;15.40;66.90;;;;;;5004783;28;20046;-64
2023/10/19 07:43:20;;;;;;;5.50;3.90;;;15.40;66.90;;;;;;5006486;28;20116;-65
2023/10/19 07:45:47;;;;;;;6.25;3.95;;;15.40;66.90;;;;;;5009361;28;20026;-64
2023/10/19 07:48:14;;;;;;;6.35;3.60;;;15.40;67.10;;;;;;5004563;28;20066;-64
2023/10/19 07:50:43;;;;;;;7.43;3.63;;;15.40;66.90;;;;;;5005202;28;20049;-64
2023/10/19 07:53:09;;;;;;;6.45;4.03;;;15.40;67.20;;;;;;5003779;28;20037;-65
2023/10/19 07:55:35;;;;;;;6.53;4.72;;;15.40;67.30;;;;;;5004884;28;20030;-65
2023/10/19 07:58:02;;;;;;;8.18;4.22;;;15.40;67.40;;;;;;5004629;28;20045;-64
2023/10/19 08:00:31;;;;;;;5.43;3.70;;;15.40;67.10;;;;;;5007674;28;20125;-64
2023/10/19 08:02:56;;;;;;;6.22;4.47;;;15.40;67.90;;;;;;5004588;28;20030;-63
2023/10/19 08:05:22;;;;;;;4.53;3.80;;;15.40;67.70;;;;;;5008798;28;20052;-65
2023/10/19 08:07:48;;;;;;;5.47;4.05;;;15.40;67.70;;;;;;5005109;28;20413;-65
2023/10/19 08:10:16;;;;;;;5.45;4.13;;;15.40;67.80;;;;;;5003607;28;20033;-65
2023/10/19 08:12:43;;;;;;;6.15;4.20;;;15.40;68.00;;;;;;5010349;28;20109;-65
2023/10/19 08:15:13;;;;;;;4.03;3.50;;;15.40;67.40;;;;;;5008062;28;20148;-64
2023/10/19 08:17:40;;;;;;;4.53;3.60;;;15.40;67.40;;;;;;5003240;28;20022;-64
2023/10/19 08:20:15;;;;;;;6.75;3.40;;;15.40;67.50;;;;;;5004313;28;20084;-65
2023/10/19 08:22:46;;;;;;;6.28;3.60;;;15.40;67.50;;;;;;4999795;28;20030;-64
2023/10/19 08:25:14;;;;;;;4.70;3.80;;;15.40;67.80;;;;;;5006045;28;20060;-64
2023/10/19 08:27:49;;;;;;;5.32;3.72;;;15.40;67.60;;;;;;5005830;28;20038;-65
2023/10/19 08:30:19;;;;;;;8.55;4.05;;;15.40;67.50;;;;;;5006614;28;20038;-64
2023/10/19 08:32:48;;;;;;;4.20;3.63;;;15.40;67.40;;;;;;5010898;28;20056;-64
2023/10/19 08:35:20;;;;;;;4.85;3.47;;;15.40;67.30;;;;;;5003949;28;20657;-64
2023/10/19 08:37:46;;;;;;;5.30;3.72;;;15.40;67.40;;;;;;5004934;28;20026;-64
2023/10/19 08:40:15;;;;;;;7.25;3.90;;;15.50;67.70;;;;;;5009075;28;20045;-64
2023/10/19 08:42:51;;;;;;;5.80;3.55;;;15.50;67.50;;;;;;5002569;28;20446;-64
2023/10/19 08:45:17;;;;;;;6.63;3.28;;;15.40;67.30;;;;;;5010732;28;20092;-64
2023/10/19 08:47:57;;;;;;;4.05;3.40;;;15.50;67.40;;;;;;5004456;28;20034;-64
2023/10/19 08:50:28;;;;;;;5.03;3.47;;;15.50;67.40;;;;;;5005833;28;20065;-64
2023/10/19 08:52:56;;;;;;;5.00;3.47;;;15.50;67.90;;;;;;5011727;28;20378;-64
2023/10/19 08:55:22;;;;;;;5.03;3.42;;;15.50;67.70;;;;;;5004989;28;20033;-64
2023/10/19 08:57:49;;;;;;;5.78;3.85;;;15.50;67.80;;;;;;5008437;28;20025;-64
2023/10/19 09:00:19;;;;;;;5.50;3.35;;;15.50;67.40;;;;;;5012896;22;20033;-46
2023/10/19 09:02:45;;;;;;;6.45;3.08;;;15.50;67.70;;;;;;5011936;28;20037;-45
2023/10/19 09:05:32;;;;;;;4.25;3.40;;;15.50;67.60;;;;;;5016216;28;20057;-46
2023/10/19 09:07:59;;;;;;;4.45;3.38;;;15.50;67.70;;;;;;5016570;28;20041;-46
2023/10/19 09:10:27;;;;;;;6.25;3.30;;;15.50;67.60;;;;;;5000184;28;20034;-47
2023/10/19 09:13:09;;;;;;;4.63;3.83;;;15.50;67.90;;;;;;5000578;28;20026;-47
2023/10/19 09:15:39;;;;;;;4.55;3.15;;;15.50;67.30;;;;;;5018887;28;20117;-46
2023/10/19 09:18:19;;;;;;;6.57;3.53;;;15.50;67.60;;;;;;4983728;28;20117;-49
2023/10/19 09:20:52;;;;;;;4.70;3.85;;;15.50;67.60;;;;;;4999015;28;20577;-48
2023/10/19 09:23:28;;;;;;;5.25;3.80;;;15.50;67.70;;;;;;5013357;28;20529;-47
2023/10/19 09:25:57;;;;;;;4.13;3.67;;;15.60;67.40;;;;;;5017898;28;20100;-49
2023/10/19 09:28:25;;;;;;;4.53;4.05;;;15.60;67.90;;;;;;5014525;28;20045;-46
2023/10/19 09:30:51;;;;;;;6.32;4.35;;;15.60;67.90;;;;;;5013657;28;20084;-50
2023/10/19 09:33:17;;;;;;;3.67;3.33;;;15.60;67.50;;;;;;5014576;28;20084;-47
2023/10/19 09:35:48;;;;;;;3.63;3.30;;;15.60;67.80;;;;;;5016422;28;20437;-48
2023/10/19 09:38:21;;;;;;;4.20;3.55;;;15.60;67.90;;;;;;5014518;28;20079;-46
2023/10/19 09:40:50;;;;;;;6.13;3.60;;;15.60;67.70;;;;;;5012989;28;20038;-47
2023/10/19 09:43:26;;;;;;;5.15;3.53;;;15.60;67.70;;;;;;5012599;28;20556;-47
2023/10/19 09:45:53;;;;;;;;;;;15.60;67.50;;;;;;5007897;28;20061;-46
2023/10/19 09:48:19;;;;;;;4.75;3.80;;;15.60;67.60;;;;;;5002791;28;19920;-45
2023/10/19 09:50:55;;;;;;;3.65;3.15;;;15.60;68.20;;;;;;5002065;28;20364;-51
2023/10/19 09:53:27;;;;;;;4.28;3.50;;;15.60;67.30;;;;;;5014464;28;20042;-46
2023/10/19 09:55:57;;;;;;;5.18;2.92;;;15.70;67.90;;;;;;5016976;28;20105;-45
2023/10/19 09:58:32;;;;;;;3.92;3.53;;;15.70;67.90;;;;;;5020762;28;20510;-47
2023/10/19 10:00:57;;;;;;;4.00;3.08;;;15.70;68.10;;;;;;5013805;28;20048;-48
2023/10/19 10:03:47;;;;;;;4.47;3.47;;;15.70;67.80;;;;;;5012682;28;20034;-46
2023/10/19 10:06:16;;;;;;;5.90;3.83;;;15.70;68.20;;;;;;5009625;28;20033;-47
2023/10/19 10:08:45;;;;;;;5.35;3.10;;;15.70;67.70;;;;;;5015602;28;20068;-47
2023/10/19 10:11:16;;;;;;;4.28;3.45;;;15.70;67.90;;;;;;4998401;28;20037;-46
2023/10/19 10:13:44;;;;;;;4.15;2.97;;;15.70;68.40;;;;;;5016107;28;20055;-47
2023/10/19 10:16:14;;;;;;;4.47;2.92;;;15.70;67.90;;;;;;5021370;28;20041;-46
2023/10/19 10:18:41;;;;;;;6.85;3.45;;;15.70;68.20;;;;;;5023628;28;20045;-52
2023/10/19 10:21:21;;;;;;;4.30;3.90;;;15.70;67.60;;;;;;5021502;28;20025;-49
2023/10/19 10:23:48;;;;;;;4.45;3.38;;;15.70;68.20;;;;;;5019579;28;20033;-46
2023/10/19 10:26:16;;;;;;;4.65;3.33;;;15.70;68.00;;;;;;5019014;28;20074;-49
2023/10/19 10:28:47;;;;;;;4.82;3.40;;;15.70;68.20;;;;;;5022863;28;20041;-46
2023/10/19 10:31:21;;;;;;;3.70;3.03;;;15.70;67.80;;;;;;5020348;28;20040;-46
2023/10/19 10:33:51;;;;;;;3.78;3.10;;;15.80;68.40;;;;;;5021744;28;20026;-47
2023/10/19 10:36:19;;;;;;;3.33;2.90;;;15.80;67.40;;;;;;5020025;28;20494;-47
2023/10/19 10:38:46;;;;;;;3.22;2.88;;;15.80;68.40;;;;;;5021464;28;20033;-50
2023/10/19 10:41:12;;;;;;;4.30;3.17;;;15.80;67.60;;;;;;5020570;28;20044;-45
2023/10/19 10:43:52;;;;;;;4.30;3.40;;;15.80;67.70;;;;;;5005015;28;20030;-45
2023/10/19 10:46:19;;;;;;;4.07;3.65;;;15.80;67.40;;;;;;4997250;28;20038;-45
2023/10/19 10:48:45;;;;;;;3.35;2.92;;;15.80;67.60;;;;;;5020299;28;20040;-47
2023/10/19 10:51:24;;;;;;;4.32;3.38;;;15.80;67.30;;;;;;5012823;28;20395;-48
2023/10/19 10:53:51;;;;;;;4.25;3.22;;;15.80;67.90;;;;;;5016742;28;20505;-46
2023/10/19 10:56:18;;;;;;;3.40;3.10;;;15.80;67.40;;;;;;5018850;28;20049;-51
2023/10/19 10:58:44;;;;;;;6.47;3.92;;;15.80;67.10;;;;;;4992490;28;20128;-47
2023/10/19 11:01:10;;;;;;;3.90;3.13;;;15.80;67.60;;;;;;5011353;28;20053;-46
2023/10/19 11:03:37;;;;;;;6.60;4.40;;;15.90;67.30;;;;;;5004297;28;20060;-46
2023/10/19 11:06:13;;;;;;;10.98;5.35;;;15.90;68.80;;;;;;5003514;28;20079;-53
2023/10/19 11:08:38;;;;;;;;;;;15.90;67.10;;;;;;5005192;28;20440;-46
2023/10/19 11:11:12;;;;;;;12.18;5.30;;;15.90;67.60;;;;;;4999904;28;19916;-46
2023/10/19 11:13:38;;;;;;;12.15;5.43;;;15.90;67.20;;;;;;5011572;28;20058;-48
2023/10/19 11:16:07;;;;;;;12.60;5.40;;;15.90;67.80;;;;;;5011581;28;20033;-46
2023/10/19 11:18:40;;;;;;;15.27;6.03;;;15.90;67.60;;;;;;5019841;28;20029;-46
2023/10/19 11:21:11;;;;;;;12.10;6.07;;;15.90;68.10;;;;;;5021200;28;20056;-47
2023/10/19 11:23:37;;;;;;;16.60;7.55;;;15.90;67.80;;;;;;5008715;28;20032;-46
2023/10/19 11:26:05;;;;;;;17.67;6.40;;;15.90;67.70;;;;;;5011729;28;20663;-50
2023/10/19 11:28:31;;;;;;;15.95;6.68;;;15.90;69.20;;;;;;5009068;28;20041;-48
2023/10/19 11:31:11;;;;;;;12.65;6.63;;;15.90;67.70;;;;;;5010158;28;20037;-49
2023/10/19 11:33:36;;;;;;;17.13;6.60;;;16.00;67.90;;;;;;5008285;28;20037;-49
2023/10/19 11:36:02;;;;;;;12.93;6.10;;;16.00;68.00;;;;;;5012047;28;20410;-47
2023/10/19 11:38:28;;;;;;;16.35;7.05;;;16.00;69.10;;;;;;5013949;28;20029;-52
2023/10/19 11:40:53;;;;;;;11.98;5.63;;;16.00;67.90;;;;;;5009311;28;20103;-47
2023/10/19 11:43:19;;;;;;;13.35;5.80;;;16.00;67.90;;;;;;5019432;28;20568;-46
2023/10/19 11:45:45;;;;;;;12.65;6.07;;;16.00;67.80;;;;;;5000437;28;20029;-47
2023/10/19 11:48:11;;;;;;;14.63;6.40;;;16.00;68.40;;;;;;5016337;28;20045;-46
2023/10/19 11:50:37;;;;;;;11.18;6.20;;;15.90;68.10;;;;;;5009211;28;20415;-46
2023/10/19 11:53:03;;;;;;;16.17;6.28;;;16.00;68.30;;;;;;5015507;28;20037;-49
2023/10/19 11:55:29;;;;;;;10.57;5.68;;;16.00;68.10;;;;;;5010308;28;20033;-49
2023/10/19 11:57:54;;;;;;;10.88;5.55;;;16.00;67.60;;;;;;5014644;28;20037;-53
2023/10/19 12:00:21;;;;;;;9.88;6.22;;;16.00;67.60;;;;;;5010265;28;20064;-46
2023/10/19 12:02:48;;;;;;;13.82;6.32;;;16.00;67.80;;;;;;5018152;28;20037;-46
2023/10/19 12:05:14;;;;;;;10.57;5.45;;;16.00;67.90;;;;;;5017456;28;20033;-47
2023/10/19 12:07:40;;;;;;;10.15;5.50;;;16.00;67.70;;;;;;5009031;28;20030;-49
2023/10/19 12:10:10;;;;;;;11.15;5.20;;;16.00;67.50;;;;;;5001636;28;20026;-46
2023/10/19 12:12:36;;;;;;;13.73;5.63;;;16.00;68.10;;;;;;5006404;28;20033;-47
2023/10/19 12:15:05;;;;;;;11.30;5.60;;;16.00;67.90;;;;;;5013462;28;20072;-47
2023/10/19 12:17:31;;;;;;;11.57;5.53;;;16.00;68.30;;;;;;5008746;28;20044;-49
2023/10/19 12:19:57;;;;;;;9.43;5.70;;;16.00;67.80;;;;;;5017159;28;20111;-48
2023/10/19 12:22:24;;;;;;;9.25;5.07;;;16.00;68.80;;;;;;5009752;28;20491;-47
2023/10/19 12:24:51;;;;;;;10.75;5.10;;;16.00;68.50;;;;;;5010257;28;20030;-47
2023/10/19 12:27:17;;;;;;;9.23;5.55;;;16.00;68.00;;;;;;5012826;28;20076;-50
2023/10/19 12:29:43;;;;;;;12.32;5.38;;;16.00;67.70;;;;;;5009963;28;20080;-48
2023/10/19 12:32:09;;;;;;;9.90;5.10;;;16.10;67.50;;;;;;5010761;28;20382;-47
2023/10/19 12:34:35;;;;;;;9.88;4.90;;;16.10;69.10;;;;;;5005375;28;20025;-50
2023/10/19 12:37:02;;;;;;;8.95;4.90;;;16.10;68.60;;;;;;4994876;28;20022;-45
2023/10/19 12:39:44;;;;;;;10.77;5.40;;;16.10;67.90;;;;;;5009418;28;20129;-51
2023/10/19 12:42:10;;;;;;;9.15;4.88;;;16.10;68.30;;;;;;5011010;28;20112;-47
2023/10/19 12:44:41;;;;;;;8.18;5.15;;;16.10;67.70;;;;;;5009158;28;20121;-46
2023/10/19 12:47:15;;;;;;;8.70;4.55;;;16.10;67.50;;;;;;5009416;28;20036;-48
2023/10/19 12:49:40;;;;;;;10.90;5.18;;;16.20;67.60;;;;;;4992951;28;20339;-47
2023/10/19 12:52:08;;;;;;;9.20;4.38;;;16.20;68.30;;;;;;5014623;28;20022;-50
2023/10/19 12:54:37;;;;;;;9.50;4.63;;;16.10;69.40;;;;;;5012506;28;20474;-47
2023/10/19 12:57:04;;;;;;;9.77;5.68;;;16.10;68.20;;;;;;4991417;28;20022;-46
2023/10/19 12:59:30;;;;;;;10.30;5.18;;;16.10;68.00;;;;;;5009699;28;20491;-51
2023/10/19 13:01:58;;;;;;;9.57;4.55;;;16.10;67.70;;;;;;5008592;28;20058;-47
2023/10/19 13:04:25;;;;;;;10.43;4.70;;;16.10;67.40;;;;;;5006477;28;20058;-48
2023/10/19 13:06:51;;;;;;;8.02;4.97;;;16.20;67.80;;;;;;5007383;28;20025;-51
2023/10/19 13:09:21;;;;;;;8.73;4.80;;;16.10;67.50;;;;;;5007675;28;20083;-46
2023/10/19 13:11:51;;;;;;;8.52;4.80;;;16.10;67.50;;;;;;5008527;28;20398;-46
2023/10/19 13:14:18;;;;;;;11.23;5.05;;;16.20;67.60;;;;;;4995149;28;20485;-46
2023/10/19 13:16:43;;;;;;;11.27;4.60;;;16.20;68.20;;;;;;5012723;28;20549;-47
2023/10/19 13:19:13;;;;;;;9.73;4.53;;;16.10;68.50;;;;;;5011353;28;20041;-49
2023/10/19 13:21:44;;;;;;;10.13;5.03;;;16.20;67.70;;;;;;5012075;28;20060;-47
2023/10/19 13:24:10;;;;;;;9.90;4.57;;;16.20;67.90;;;;;;5012088;28;20087;-51
2023/10/19 13:26:37;;;;;;;7.97;4.57;;;16.20;67.70;;;;;;5009935;28;20037;-46
2023/10/19 13:29:03;;;;;;;11.63;5.20;;;16.20;67.50;;;;;;5011151;28;20121;-47
2023/10/19 13:31:29;;;;;;;8.50;3.95;;;16.20;67.50;;;;;;5009525;28;20026;-47
2023/10/19 13:33:54;;;;;;;7.68;4.57;;;16.20;67.60;;;;;;5008216;28;20052;-48